Time;durP1;ratioP1;P1;durP2;ratioP2;P2;SDS_P1;SDS_P2;PMS_P1;PMS_P2;Temp;Humidity;BMP_temperature;BMP_pressure;BME280_temperature;BME280_humidity;BME280_pressure;Samples;Min_cycle;Max_cycle;Signal;HPM_P1;HPM_P2
2022/01/28 00:04:50;;;;;;;7.82;3.08;;;21.50;40.60;;;;;;4997853;28;43610;-69
2022/01/28 00:07:18;;;;;;;7.72;2.90;;;21.50;40.60;;;;;;4996990;28;43686;-69
2022/01/28 00:09:46;;;;;;;6.55;2.80;;;21.50;40.60;;;;;;5005364;28;44792;-69
2022/01/28 00:12:14;;;;;;;5.40;2.53;;;21.40;40.50;;;;;;5012946;28;43477;-70
2022/01/28 00:39:06;;;;;;;7.03;3.00;;;21.40;40.60;;;;;;5002417;28;43986;-70
2022/01/28 00:41:34;;;;;;;8.05;3.20;;;21.30;41.10;;;;;;4990167;28;44736;-69
2022/01/28 00:44:01;;;;;;;7.32;3.20;;;21.30;40.70;;;;;;4998298;28;43472;-69
2022/01/28 00:46:29;;;;;;;6.15;2.80;;;21.30;40.80;;;;;;5006811;28;43604;-70
2022/01/28 00:48:57;;;;;;;7.68;2.92;;;21.20;40.70;;;;;;5003599;28;45610;-69
2022/01/28 00:51:30;;;;;;;6.60;2.92;;;21.20;40.80;;;;;;4996282;28;43464;-70
2022/01/28 00:53:58;;;;;;;9.05;2.80;;;21.20;40.90;;;;;;5002500;28;43490;-70
2022/01/28 00:56:25;;;;;;;6.88;2.90;;;21.20;40.90;;;;;;4999209;28;43556;-69
2022/01/28 00:58:53;;;;;;;4.60;2.22;;;21.20;40.90;;;;;;5008850;28;45435;-70
2022/01/28 01:01:20;;;;;;;5.80;2.78;;;21.10;40.90;;;;;;4987776;28;44995;-70
2022/01/28 01:03:48;;;;;;;6.03;2.60;;;21.20;40.90;;;;;;5008190;28;44134;-69
2022/01/28 01:06:18;;;;;;;7.18;3.00;;;21.20;40.80;;;;;;5003076;28;43628;-69
2022/01/28 01:08:45;;;;;;;5.78;2.70;;;21.20;40.80;;;;;;5000679;28;45826;-70
2022/01/28 01:11:13;;;;;;;5.97;2.88;;;21.20;40.80;;;;;;5004852;28;44893;-70
2022/01/28 01:13:42;;;;;;;6.22;2.70;;;21.20;40.80;;;;;;5003268;28;43494;-70
2022/01/28 01:16:13;;;;;;;5.95;2.80;;;21.20;40.80;;;;;;5000391;28;43528;-70
2022/01/28 01:21:21;;;;;;;5.10;2.50;;;21.20;40.70;;;;;;5000258;28;43497;-69
2022/01/28 01:23:56;;;;;;;6.10;2.90;;;21.10;40.70;;;;;;5004438;28;43628;-69
2022/01/28 01:26:34;;;;;;;5.15;2.65;;;21.20;40.80;;;;;;5006318;28;43829;-69
2022/01/28 01:29:05;;;;;;;4.97;2.50;;;21.10;40.70;;;;;;5006135;28;45455;-70
2022/01/28 01:31:34;;;;;;;4.82;2.50;;;21.10;40.70;;;;;;5008180;28;44298;-69
2022/01/28 01:34:12;;;;;;;7.35;2.75;;;21.10;40.70;;;;;;5003971;28;43556;-69
2022/01/28 01:36:40;;;;;;;6.47;2.50;;;21.10;40.70;;;;;;4995694;28;43491;-69
2022/01/28 01:39:09;;;;;;;5.43;2.60;;;21.10;40.80;;;;;;5004371;28;43617;-70
2022/01/28 01:41:51;;;;;;;6.35;2.90;;;21.10;40.80;;;;;;5012813;28;44574;-69
2022/01/28 01:44:57;;;;;;;5.68;2.63;;;21.10;40.80;;;;;;5016257;28;43548;-69
2022/01/28 01:52:49;;;;;;;4.75;2.45;;;21.10;40.80;;;;;;5003577;28;44396;-69
2022/01/28 01:55:16;;;;;;;6.40;3.10;;;21.10;40.80;;;;;;5019804;28;43468;-69
2022/01/28 01:57:44;;;;;;;7.05;3.03;;;21.10;40.80;;;;;;5004365;28;43484;-69
2022/01/28 02:00:14;;;;;;;7.25;3.22;;;21.00;40.70;;;;;;4988258;28;44398;-69
2022/01/28 02:02:47;;;;;;;6.63;2.97;;;21.00;40.80;;;;;;5001571;28;43626;-69
2022/01/28 02:05:15;;;;;;;7.72;2.70;;;20.90;40.80;;;;;;5005316;28;43575;-70
2022/01/28 02:07:45;;;;;;;6.97;2.95;;;20.90;40.90;;;;;;4997529;28;43529;-69
2022/01/28 02:10:14;;;;;;;7.75;3.40;;;20.90;41.00;;;;;;5007438;28;43771;-70
2022/01/28 02:12:50;;;;;;;5.80;2.70;;;20.90;40.90;;;;;;5006888;28;44362;-69
2022/01/28 02:15:18;;;;;;;6.57;3.00;;;20.90;41.00;;;;;;5013950;28;43528;-69
2022/01/28 02:17:46;;;;;;;6.03;2.75;;;20.80;40.90;;;;;;5005224;28;43610;-70
2022/01/28 02:20:23;;;;;;;6.60;2.90;;;20.80;40.90;;;;;;5020311;28;46133;-69
2022/01/28 02:22:50;;;;;;;6.50;3.20;;;20.90;40.90;;;;;;5002393;28;43538;-69
2022/01/28 02:25:26;;;;;;;6.43;2.90;;;20.80;40.90;;;;;;5002328;28;43590;-69
2022/01/28 02:27:56;;;;;;;8.18;3.05;;;20.80;41.00;;;;;;5003516;28;43580;-70
2022/01/28 02:30:24;;;;;;;7.03;2.83;;;20.80;40.90;;;;;;4999635;28;45444;-69
2022/01/28 02:32:57;;;;;;;6.10;3.05;;;20.80;40.90;;;;;;5003774;28;44925;-69
2022/01/28 02:35:24;;;;;;;6.25;3.05;;;20.80;40.90;;;;;;5005196;28;43553;-69
2022/01/28 02:37:52;;;;;;;8.68;3.40;;;20.80;40.90;;;;;;5009530;28;43528;-70
2022/01/28 02:40:19;;;;;;;6.43;2.90;;;20.70;40.90;;;;;;5003138;28;44038;-70
2022/01/28 02:43:01;;;;;;;6.72;2.95;;;20.70;40.90;;;;;;5000589;28;43480;-70
2022/01/28 02:45:35;;;;;;;5.82;3.08;;;20.70;40.90;;;;;;5000664;28;43466;-69
2022/01/28 02:48:08;;;;;;;6.00;3.10;;;20.70;40.90;;;;;;4997707;28;44053;-69
2022/01/28 02:50:45;;;;;;;6.68;3.22;;;20.70;40.90;;;;;;5003073;28;44063;-70
2022/01/28 02:53:22;;;;;;;6.90;3.13;;;20.70;40.90;;;;;;5004650;28;43528;-70
2022/01/28 02:55:57;;;;;;;7.90;3.17;;;20.70;40.90;;;;;;5001837;28;43570;-69
2022/01/28 02:58:25;;;;;;;5.82;2.80;;;20.60;40.80;;;;;;5004970;28;44476;-69
2022/01/28 03:00:57;;;;;;;7.20;2.78;;;20.60;40.80;;;;;;5004393;28;45470;-70
2022/01/28 03:03:25;;;;;;;6.45;2.53;;;20.60;40.80;;;;;;5004244;28;44355;-69
2022/01/28 03:05:53;;;;;;;7.90;3.20;;;20.60;40.80;;;;;;5001786;28;43507;-69
2022/01/28 03:08:24;;;;;;;7.15;3.05;;;20.60;40.80;;;;;;5003848;28;43590;-69
2022/01/28 03:13:58;;;;;;;6.15;2.75;;;20.60;40.80;;;;;;5020257;28;44677;-69
2022/01/28 03:16:23;;;;;;;6.82;3.00;;;20.50;40.80;;;;;;5001230;28;43584;-70
2022/01/28 03:21:26;;;;;;;5.22;2.83;;;20.60;40.80;;;;;;5003436;28;45354;-68
2022/01/28 03:23:53;;;;;;;6.43;2.90;;;20.50;40.80;;;;;;5017911;28;43445;-68
2022/01/28 03:26:24;;;;;;;6.47;2.92;;;20.50;40.80;;;;;;5004857;28;43591;-69
2022/01/28 03:28:57;;;;;;;6.57;3.20;;;20.60;40.90;;;;;;5005163;28;43499;-69
2022/01/28 03:31:24;;;;;;;7.25;3.47;;;20.60;40.80;;;;;;5002559;28;45259;-69
2022/01/28 03:33:52;;;;;;;4.95;2.75;;;20.50;40.80;;;;;;5004662;28;45357;-68
2022/01/28 03:36:19;;;;;;;5.03;2.53;;;20.60;40.80;;;;;;5004625;28;43559;-69
2022/01/28 03:38:48;;;;;;;7.05;3.38;;;20.50;40.80;;;;;;5005265;28;43532;-69
2022/01/28 03:41:18;;;;;;;6.15;2.90;;;20.50;40.80;;;;;;5003369;28;45851;-69
2022/01/28 03:43:47;;;;;;;5.90;2.83;;;20.50;40.80;;;;;;5002986;28;44863;-68
2022/01/28 03:46:15;;;;;;;6.53;2.70;;;20.50;40.80;;;;;;5003887;28;43548;-69
2022/01/28 03:48:43;;;;;;;5.57;2.67;;;20.50;40.80;;;;;;5004826;28;43599;-69
2022/01/28 03:51:10;;;;;;;6.80;2.75;;;20.40;40.80;;;;;;5003540;28;43953;-69
2022/01/28 03:53:38;;;;;;;6.10;2.80;;;20.50;40.90;;;;;;5001343;28;44299;-69
2022/01/28 03:56:05;;;;;;;7.53;2.85;;;20.50;40.90;;;;;;4999733;28;43611;-70
2022/01/28 03:58:33;;;;;;;6.55;2.65;;;20.40;40.90;;;;;;5001277;28;44212;-69
2022/01/28 04:01:02;;;;;;;6.00;2.90;;;20.40;40.90;;;;;;5003303;28;43935;-69
2022/01/28 04:11:32;;;;;;;5.95;2.75;;;20.40;40.80;;;;;;5001691;28;45088;-69
2022/01/28 04:14:11;;;;;;;6.50;2.88;;;20.40;40.90;;;;;;5002882;28;44609;-69
2022/01/28 04:19:24;;;;;;;6.88;2.78;;;20.30;40.90;;;;;;5008765;28;43552;-70
2022/01/28 04:21:52;;;;;;;4.10;2.45;;;20.30;41.00;;;;;;5003568;28;44206;-70
2022/01/28 04:24:19;;;;;;;6.70;2.67;;;20.30;40.90;;;;;;5003628;28;44422;-69
2022/01/28 04:26:47;;;;;;;6.22;2.90;;;20.30;40.90;;;;;;5002412;28;43473;-70
2022/01/28 04:29:15;;;;;;;6.85;3.08;;;20.30;40.90;;;;;;5004796;28;43503;-69
2022/01/28 04:31:45;;;;;;;4.85;2.72;;;20.30;41.00;;;;;;5003670;28;43940;-70
2022/01/28 04:34:15;;;;;;;8.02;3.45;;;20.30;41.00;;;;;;5006020;28;44970;-69
2022/01/28 04:44:45;;;;;;;6.47;3.05;;;20.20;41.00;;;;;;5003718;28;44816;-69
2022/01/28 04:47:20;;;;;;;6.60;2.92;;;20.20;40.90;;;;;;5002708;28;43601;-69
2022/01/28 04:53:00;;;;;;;8.32;3.00;;;20.20;40.90;;;;;;4999890;28;45777;-69
2022/01/28 05:13:49;;;;;;;7.47;2.97;;;20.20;40.90;;;;;;5004828;28;45657;-68
2022/01/28 05:16:45;;;;;;;7.43;2.92;;;20.20;41.00;;;;;;4989377;28;45157;-68
2022/01/28 05:27:06;;;;;;;5.22;2.90;;;20.10;40.90;;;;;;4990478;28;44776;-69
2022/01/28 05:29:33;;;;;;;6.82;2.90;;;20.10;40.90;;;;;;5004826;28;43500;-68
2022/01/28 05:32:01;;;;;;;6.95;3.03;;;20.10;40.90;;;;;;5005566;28;43605;-69
2022/01/28 05:34:28;;;;;;;5.57;2.72;;;20.10;41.00;;;;;;5002834;28;45386;-69
2022/01/28 05:36:56;;;;;;;6.93;2.90;;;20.10;41.60;;;;;;5006744;28;43496;-69
2022/01/28 05:39:23;;;;;;;7.13;2.92;;;20.10;41.00;;;;;;4979192;28;43579;-69
2022/01/28 05:41:51;;;;;;;7.40;3.13;;;20.10;41.00;;;;;;5007538;28;43510;-69
2022/01/28 05:44:20;;;;;;;7.68;3.10;;;20.10;40.90;;;;;;5004677;28;45412;-69
2022/01/28 05:46:49;;;;;;;5.88;2.72;;;20.10;41.00;;;;;;5008540;28;45074;-68
2022/01/28 05:49:16;;;;;;;6.82;3.00;;;20.10;41.00;;;;;;5005521;28;43510;-69
2022/01/28 05:51:44;;;;;;;7.88;3.10;;;20.10;41.10;;;;;;5005764;28;43481;-69
2022/01/28 05:54:11;;;;;;;6.07;2.75;;;20.00;41.00;;;;;;5005501;28;43934;-68
2022/01/28 05:56:39;;;;;;;8.43;3.00;;;20.00;41.00;;;;;;5004010;28;44410;-70
2022/01/28 05:59:06;;;;;;;6.32;2.65;;;20.00;41.00;;;;;;5003897;28;43465;-69
2022/01/28 06:01:34;;;;;;;7.80;3.00;;;20.00;41.10;;;;;;5004651;28;43551;-68
2022/01/28 06:04:02;;;;;;;8.98;3.35;;;20.00;41.00;;;;;;5002711;28;45808;-69
2022/01/28 06:06:30;;;;;;;6.75;3.22;;;20.00;41.00;;;;;;5007462;28;43570;-69
2022/01/28 06:08:58;;;;;;;5.90;2.95;;;19.90;41.00;;;;;;4992766;28;43457;-69
2022/01/28 06:11:26;;;;;;;6.72;3.30;;;19.90;41.00;;;;;;5001374;28;43645;-69
2022/01/28 06:13:53;;;;;;;8.45;3.03;;;19.90;41.10;;;;;;5002943;28;43803;-69
2022/01/28 06:16:21;;;;;;;7.45;2.88;;;19.90;41.10;;;;;;4986480;28;43486;-68
2022/01/28 06:18:48;;;;;;;4.95;2.55;;;19.90;41.10;;;;;;5005589;28;43439;-69
2022/01/28 06:21:16;;;;;;;6.15;2.83;;;19.90;41.20;;;;;;5004530;28;43527;-68
2022/01/28 06:23:43;;;;;;;5.45;2.97;;;19.90;41.10;;;;;;5002597;28;44177;-68
2022/01/28 06:26:11;;;;;;;5.72;3.08;;;19.90;41.10;;;;;;5007257;28;44344;-69
2022/01/28 06:28:38;;;;;;;5.13;2.72;;;19.90;41.20;;;;;;4989313;28;43546;-69
2022/01/28 06:31:06;;;;;;;6.65;2.90;;;19.90;41.30;;;;;;5009845;28;43508;-69
2022/01/28 06:33:34;;;;;;;7.60;3.25;;;19.90;41.20;;;;;;5007677;28;44200;-68
2022/01/28 06:36:02;;;;;;;6.18;3.10;;;19.90;41.20;;;;;;5005103;28;44343;-69
2022/01/28 06:38:30;;;;;;;5.93;3.17;;;19.90;41.20;;;;;;5005792;28;43476;-68
2022/01/28 06:40:57;;;;;;;4.10;2.42;;;19.90;41.20;;;;;;4987895;28;43479;-69
2022/01/28 06:43:25;;;;;;;7.80;2.80;;;19.90;41.20;;;;;;5001752;28;45957;-69
2022/01/28 06:45:52;;;;;;;6.18;3.10;;;19.90;41.10;;;;;;4997362;28;44443;-68
2022/01/28 06:48:20;;;;;;;6.40;2.90;;;19.90;41.20;;;;;;5005283;28;43407;-68
2022/01/28 06:50:48;;;;;;;6.25;3.00;;;19.90;41.20;;;;;;5005851;28;43560;-69
2022/01/28 06:53:16;;;;;;;6.25;2.70;;;19.90;41.20;;;;;;5004493;28;46232;-69
2022/01/28 06:55:43;;;;;;;5.60;2.85;;;19.90;41.20;;;;;;5007786;28;44368;-69
2022/01/28 06:58:11;;;;;;;6.68;2.83;;;19.90;41.20;;;;;;5002477;28;43559;-68
2022/01/28 07:00:40;;;;;;;5.93;2.55;;;19.90;41.20;;;;;;5004049;28;43508;-68
2022/01/28 07:03:12;;;;;;;5.90;2.88;;;19.90;41.20;;;;;;5002471;28;43940;-69
2022/01/28 07:05:40;;;;;;;7.75;2.78;;;19.90;41.20;;;;;;5001966;28;44254;-70
2022/01/28 07:08:09;;;;;;;7.15;3.10;;;19.90;41.90;;;;;;5006886;28;43502;-69
2022/01/28 07:10:36;;;;;;;5.88;2.58;;;19.90;41.30;;;;;;5004837;28;43558;-68
2022/01/28 07:13:04;;;;;;;6.88;3.08;;;19.90;41.40;;;;;;5001509;28;45484;-69
2022/01/28 07:15:32;;;;;;;6.13;3.10;;;19.90;41.50;;;;;;5010850;28;44254;-71
2022/01/28 07:18:03;;;;;;;6.47;3.00;;;19.90;41.50;;;;;;5001500;28;43576;-69
2022/01/28 07:20:31;;;;;;;6.82;3.00;;;19.90;41.50;;;;;;5004359;28;44121;-72
2022/01/28 07:22:59;;;;;;;5.25;2.60;;;19.90;41.50;;;;;;4984548;28;44017;-70
2022/01/28 07:25:26;;;;;;;5.70;2.60;;;19.90;41.50;;;;;;5004751;28;44300;-69
2022/01/28 07:27:54;;;;;;;6.30;2.83;;;19.90;41.50;;;;;;5004511;28;43490;-69
2022/01/28 07:30:22;;;;;;;7.25;2.72;;;19.90;41.50;;;;;;5005539;28;43639;-71
2022/01/28 07:32:50;;;;;;;6.82;2.80;;;19.90;41.50;;;;;;5001732;28;43872;-72
2022/01/28 07:35:18;;;;;;;7.40;2.97;;;19.90;41.50;;;;;;5006209;28;43737;-69
2022/01/28 07:37:46;;;;;;;6.13;2.53;;;19.90;41.40;;;;;;5007816;28;43518;-69
2022/01/28 07:40:14;;;;;;;7.43;3.10;;;20.00;41.50;;;;;;5007047;28;43532;-69
2022/01/28 07:42:42;;;;;;;4.90;2.40;;;20.00;41.40;;;;;;5005374;28;44721;-68
2022/01/28 07:45:15;;;;;;;8.63;3.78;;;20.00;41.40;;;;;;5000744;28;43641;-68
2022/01/28 07:47:44;;;;;;;4.93;2.25;;;20.00;41.30;;;;;;5003772;28;43519;-69
2022/01/28 07:50:13;;;;;;;6.38;2.53;;;20.00;41.30;;;;;;5005448;28;43511;-69
2022/01/28 07:52:41;;;;;;;5.78;2.75;;;20.00;41.30;;;;;;5002205;28;45260;-69
2022/01/28 07:55:11;;;;;;;5.85;2.78;;;20.00;41.30;;;;;;5002240;28;44473;-68
2022/01/28 07:57:39;;;;;;;5.90;2.75;;;20.00;41.30;;;;;;5002494;28;43476;-69
2022/01/28 08:00:09;;;;;;;5.97;2.50;;;20.10;41.30;;;;;;4998563;28;43595;-67
2022/01/28 08:02:42;;;;;;;5.68;2.42;;;20.10;41.20;;;;;;5004730;28;45136;-69
2022/01/28 08:05:11;;;;;;;8.27;3.28;;;20.10;41.20;;;;;;5006419;28;45606;-69
2022/01/28 08:07:39;;;;;;;5.10;2.60;;;20.10;41.20;;;;;;4987655;28;43614;-70
2022/01/28 08:10:07;;;;;;;5.18;2.33;;;20.10;41.20;;;;;;5004207;28;43938;-69
2022/01/28 08:12:44;;;;;;;6.07;2.58;;;20.10;41.20;;;;;;5020335;28;43888;-69
2022/01/28 08:15:12;;;;;;;6.72;2.85;;;20.20;41.20;;;;;;5001794;28;44895;-66
2022/01/28 08:17:39;;;;;;;7.28;2.80;;;20.20;41.30;;;;;;5021759;28;43543;-67
2022/01/28 08:20:08;;;;;;;6.68;2.55;;;20.20;41.30;;;;;;5012925;28;43516;-68
2022/01/28 08:22:57;;;;;;;6.22;2.85;;;20.20;41.30;;;;;;4999367;28;43942;-66
2022/01/28 08:25:31;;;;;;;6.05;2.90;;;20.20;42.00;;;;;;4998544;28;44303;-67
2022/01/28 08:28:01;;;;;;;5.93;2.80;;;20.20;41.30;;;;;;5000872;28;43441;-69
2022/01/28 08:30:30;;;;;;;6.50;2.50;;;20.20;41.30;;;;;;5001329;28;44132;-68
2022/01/28 08:32:58;;;;;;;6.07;2.58;;;20.30;41.30;;;;;;4995934;28;45576;-68
2022/01/28 08:35:31;;;;;;;4.40;2.33;;;20.30;41.30;;;;;;5005252;28;44608;-68
2022/01/28 08:38:16;;;;;;;4.75;2.50;;;20.30;41.40;;;;;;5005882;28;43587;-67
2022/01/28 08:40:44;;;;;;;5.10;2.10;;;20.30;41.50;;;;;;5007000;28;43521;-67
2022/01/28 08:43:12;;;;;;;5.97;2.63;;;20.30;41.50;;;;;;5003421;28;43911;-67
2022/01/28 08:45:41;;;;;;;7.38;2.97;;;20.40;41.50;;;;;;5008127;28;44388;-68
2022/01/28 08:48:08;;;;;;;5.38;2.47;;;20.30;41.50;;;;;;5009398;28;43470;-67
2022/01/28 08:50:36;;;;;;;5.38;2.60;;;20.40;41.50;;;;;;5007134;28;43669;-67
2022/01/28 08:53:04;;;;;;;5.07;2.40;;;20.40;41.50;;;;;;5009282;28;43935;-67
2022/01/28 08:55:31;;;;;;;4.85;2.42;;;20.40;41.50;;;;;;5009428;28;43528;-66
2022/01/28 08:57:59;;;;;;;4.75;2.30;;;20.40;41.50;;;;;;5013253;28;43483;-67
2022/01/28 09:00:26;;;;;;;5.57;2.58;;;20.40;41.40;;;;;;5006652;28;43541;-66
2022/01/28 09:02:54;;;;;;;4.75;2.47;;;20.40;41.40;;;;;;5008133;28;45478;-66
2022/01/28 09:05:22;;;;;;;5.97;2.83;;;20.40;41.30;;;;;;5007858;28;43451;-68
2022/01/28 09:07:51;;;;;;;6.05;2.97;;;20.40;41.30;;;;;;5004687;28;43416;-68
2022/01/28 09:10:18;;;;;;;7.03;2.70;;;20.50;41.40;;;;;;5005470;28;43933;-68
2022/01/28 09:12:59;;;;;;;6.97;2.78;;;20.50;41.40;;;;;;5004132;28;45410;-67
2022/01/28 09:15:27;;;;;;;6.93;2.67;;;20.50;41.30;;;;;;5006363;28;44387;-65
2022/01/28 09:17:57;;;;;;;6.78;2.38;;;20.50;41.40;;;;;;5020416;28;43545;-66
2022/01/28 09:20:28;;;;;;;9.85;3.35;;;20.40;41.40;;;;;;5005511;28;43510;-67
2022/01/28 09:22:57;;;;;;;7.63;3.55;;;20.50;41.50;;;;;;5006047;28;45267;-66
2022/01/28 09:25:25;;;;;;;8.75;3.20;;;20.50;41.60;;;;;;5008422;28;44296;-62
2022/01/28 09:27:54;;;;;;;7.05;2.95;;;20.50;41.90;;;;;;5023715;28;43528;-62
2022/01/28 09:30:21;;;;;;;7.47;2.85;;;20.50;41.60;;;;;;5023790;28;43994;-65
2022/01/28 09:32:50;;;;;;;7.05;2.63;;;20.60;41.70;;;;;;5006033;28;44669;-65
2022/01/28 09:35:18;;;;;;;6.20;2.95;;;20.70;41.80;;;;;;5007935;28;43883;-67
2022/01/28 09:37:45;;;;;;;7.28;3.00;;;20.80;41.50;;;;;;5003474;28;43624;-67
2022/01/28 09:40:13;;;;;;;5.28;2.55;;;20.90;41.40;;;;;;5005811;28;43567;-66
2022/01/28 09:42:43;;;;;;;5.80;2.80;;;21.00;41.30;;;;;;4990962;28;44018;-66
2022/01/28 09:45:13;;;;;;;5.97;2.70;;;21.10;41.30;;;;;;5015632;28;43541;-66
2022/01/28 09:47:41;;;;;;;6.13;2.60;;;21.20;41.40;;;;;;5023331;28;43492;-66
2022/01/28 09:50:09;;;;;;;7.68;2.95;;;21.30;41.40;;;;;;5011565;28;43460;-67
2022/01/28 09:52:37;;;;;;;8.25;2.80;;;21.40;41.70;;;;;;5006257;28;45384;-68
2022/01/28 09:55:07;;;;;;;6.65;2.67;;;21.50;41.90;;;;;;5009209;28;44872;-68
2022/01/28 09:57:34;;;;;;;6.20;2.40;;;21.60;41.80;;;;;;4987165;28;43540;-68
2022/01/28 10:00:05;;;;;;;6.53;2.85;;;21.70;41.60;;;;;;5010950;28;43528;-67
2022/01/28 10:02:54;;;;;;;7.07;2.50;;;21.70;41.60;;;;;;5006412;28;44072;-69
2022/01/28 10:05:26;;;;;;;6.07;2.78;;;21.80;41.70;;;;;;5021347;28;44429;-65
2022/01/28 10:08:09;;;;;;;9.23;3.20;;;21.90;41.60;;;;;;5007556;28;43597;-68
2022/01/28 10:11:01;;;;;;;7.03;2.53;;;22.00;41.70;;;;;;5002356;28;43551;-67
2022/01/28 10:13:42;;;;;;;8.35;2.70;;;22.00;41.40;;;;;;5004413;28;45462;-69
2022/01/28 10:16:18;;;;;;;6.88;2.63;;;22.10;41.20;;;;;;5006978;28;44693;-66
2022/01/28 10:19:04;;;;;;;4.82;2.30;;;22.10;40.90;;;;;;5005565;28;43504;-66
2022/01/28 10:21:39;;;;;;;5.85;2.25;;;22.20;41.00;;;;;;5005810;28;43446;-72
2022/01/28 10:24:16;;;;;;;5.88;2.38;;;22.20;40.90;;;;;;5006491;28;45390;-70
2022/01/28 10:26:59;;;;;;;7.25;2.78;;;22.20;40.80;;;;;;5004095;28;43459;-68
2022/01/28 10:29:32;;;;;;;7.20;2.58;;;22.30;40.80;;;;;;5004553;28;43450;-70
2022/01/28 10:32:11;;;;;;;5.85;2.40;;;22.30;40.80;;;;;;5005300;28;43619;-73
2022/01/28 10:34:40;;;;;;;6.18;2.30;;;22.30;40.80;;;;;;5000356;28;43943;-71
2022/01/28 10:37:14;;;;;;;5.13;2.38;;;22.40;40.90;;;;;;5008093;28;45728;-72
2022/01/28 10:40:00;;;;;;;5.60;2.22;;;22.40;40.80;;;;;;5005318;28;43555;-69
2022/01/28 10:42:43;;;;;;;6.78;2.65;;;22.40;40.70;;;;;;5007406;28;43599;-70
2022/01/28 10:45:16;;;;;;;5.10;2.45;;;22.40;40.80;;;;;;5008162;28;45796;-67
2022/01/28 10:47:48;;;;;;;4.40;2.45;;;22.40;40.80;;;;;;5019192;28;43459;-69
2022/01/28 10:50:29;;;;;;;6.72;2.75;;;22.40;40.80;;;;;;5003224;28;43485;-67
2022/01/28 10:53:10;;;;;;;4.93;2.15;;;22.50;40.80;;;;;;5002486;28;43491;-67
2022/01/28 10:55:43;;;;;;;5.38;2.65;;;22.50;40.80;;;;;;4999743;28;43796;-68
2022/01/28 10:58:15;;;;;;;5.05;2.50;;;22.50;40.90;;;;;;5003239;28;44933;-70
2022/01/28 11:00:49;;;;;;;5.93;2.58;;;22.50;41.10;;;;;;5006858;28;43583;-68
2022/01/28 11:03:18;;;;;;;4.95;2.42;;;22.60;40.90;;;;;;5005717;28;43557;-67
2022/01/28 11:05:46;;;;;;;6.07;2.50;;;22.60;41.00;;;;;;5003318;28;46265;-68
2022/01/28 11:08:14;;;;;;;4.03;2.05;;;22.60;40.90;;;;;;5005265;28;44432;-68
2022/01/28 11:10:43;;;;;;;6.75;2.50;;;22.60;40.90;;;;;;5020581;28;43428;-68
2022/01/28 11:13:11;;;;;;;4.88;2.50;;;22.60;40.90;;;;;;5004665;28;43666;-70
2022/01/28 11:15:41;;;;;;;5.80;2.33;;;22.60;40.80;;;;;;5022667;28;43577;-71
2022/01/28 11:18:10;;;;;;;5.65;2.78;;;22.60;40.90;;;;;;5001201;28;43493;-70
2022/01/28 11:20:47;;;;;;;5.50;2.45;;;22.60;40.90;;;;;;5005118;28;44044;-67
2022/01/28 11:23:15;;;;;;;6.47;2.65;;;22.60;40.90;;;;;;5002754;28;43583;-68
2022/01/28 11:25:56;;;;;;;5.68;2.25;;;22.70;40.90;;;;;;5003171;28;44059;-71
2022/01/28 11:28:40;;;;;;;6.75;2.40;;;22.70;40.90;;;;;;5002647;28;43540;-70
2022/01/28 11:31:09;;;;;;;5.93;2.35;;;22.70;40.90;;;;;;5001859;28;43472;-69
2022/01/28 11:33:48;;;;;;;5.97;2.20;;;22.70;40.80;;;;;;4999858;28;44113;-70
2022/01/28 11:36:34;;;;;;;5.40;2.28;;;22.70;40.70;;;;;;4985311;28;45609;-69
2022/01/28 11:39:18;;;;;;;5.75;2.38;;;22.80;40.70;;;;;;5001451;28;43559;-70
2022/01/28 11:42:13;;;;;;;4.47;2.13;;;22.80;40.70;;;;;;5019545;28;43486;-70
2022/01/28 11:44:43;;;;;;;4.63;2.55;;;22.80;40.70;;;;;;4993626;28;43488;-69
2022/01/28 11:47:19;;;;;;;5.32;2.55;;;22.80;40.70;;;;;;4999300;28;45352;-71
2022/01/28 11:50:04;;;;;;;5.80;2.60;;;22.90;40.80;;;;;;5006366;28;43483;-70
2022/01/28 11:52:39;;;;;;;6.10;2.40;;;22.90;40.80;;;;;;5002057;28;43482;-67
2022/01/28 11:55:25;;;;;;;3.72;2.20;;;22.90;41.40;;;;;;5000110;28;43492;-69
2022/01/28 11:58:08;;;;;;;5.20;2.33;;;23.00;40.90;;;;;;5004842;28;44045;-70
2022/01/28 12:00:43;;;;;;;4.13;2.10;;;22.90;40.80;;;;;;5002325;28;43520;-69
2022/01/28 12:03:25;;;;;;;4.77;2.60;;;22.90;40.80;;;;;;4994691;28;43494;-68
2022/01/28 12:05:56;;;;;;;4.57;2.30;;;22.90;40.80;;;;;;5003860;28;43519;-71
2022/01/28 12:08:29;;;;;;;4.63;2.10;;;22.90;40.80;;;;;;4999999;28;43952;-66
2022/01/28 12:10:57;;;;;;;4.25;2.03;;;22.90;40.80;;;;;;5005575;28;43987;-70
2022/01/28 12:13:47;;;;;;;4.68;2.03;;;23.00;40.80;;;;;;5018578;28;43485;-68
2022/01/28 12:16:40;;;;;;;4.57;2.10;;;23.00;40.80;;;;;;5033731;28;43524;-67
2022/01/28 12:19:22;;;;;;;4.55;2.03;;;23.00;40.80;;;;;;5019651;28;44189;-70
2022/01/28 12:22:10;;;;;;;4.88;2.15;;;23.00;40.90;;;;;;5014725;28;43994;-69
2022/01/28 12:24:38;;;;;;;4.95;2.22;;;23.00;40.80;;;;;;5018000;28;43458;-67
2022/01/28 12:27:07;;;;;;;5.28;2.30;;;23.00;40.80;;;;;;5018719;28;43509;-71
2022/01/28 12:29:41;;;;;;;5.05;2.40;;;23.00;40.80;;;;;;5015861;28;45467;-69
2022/01/28 12:32:10;;;;;;;4.45;2.42;;;23.00;40.80;;;;;;5017892;28;43451;-70
2022/01/28 12:34:43;;;;;;;5.78;2.50;;;23.00;40.80;;;;;;5018105;28;43614;-69
2022/01/28 12:37:11;;;;;;;4.95;2.00;;;23.00;40.80;;;;;;5031396;28;43557;-72
2022/01/28 12:39:49;;;;;;;6.25;2.47;;;23.00;40.80;;;;;;5017067;28;45599;-71
2022/01/28 12:44:56;;;;;;;4.55;2.20;;;23.00;40.80;;;;;;5020188;28;43630;-72
2022/01/28 12:47:26;;;;;;;5.00;2.38;;;23.00;40.80;;;;;;5013796;28;43535;-72
2022/01/28 12:50:03;;;;;;;5.00;2.13;;;23.00;40.90;;;;;;5035053;28;45347;-70
2022/01/28 12:52:35;;;;;;;4.70;2.22;;;23.00;40.90;;;;;;5019743;28;44601;-69
2022/01/28 12:55:04;;;;;;;4.22;2.10;;;23.00;40.80;;;;;;5018541;28;44131;-73
2022/01/28 12:57:32;;;;;;;3.15;1.92;;;23.00;40.80;;;;;;5017872;28;43646;-69
2022/01/28 13:00:01;;;;;;;3.97;2.30;;;23.00;40.80;;;;;;5019473;28;45935;-69
2022/01/28 13:02:33;;;;;;;4.10;2.17;;;23.00;41.50;;;;;;5014407;28;44391;-70
2022/01/28 13:10:31;;;;;;;4.25;2.03;;;23.10;40.80;;;;;;5014579;28;47071;-72
2022/01/28 13:13:07;;;;;;;3.95;1.77;;;23.00;40.60;;;;;;5004127;28;44710;-68
2022/01/28 13:15:36;;;;;;;4.70;2.05;;;23.00;40.70;;;;;;5001930;28;43576;-71
2022/01/28 13:18:05;;;;;;;5.38;2.10;;;23.10;40.80;;;;;;4996943;28;43510;-72
2022/01/28 13:20:39;;;;;;;4.82;2.08;;;23.00;40.70;;;;;;4987859;28;44076;-69
2022/01/28 13:23:09;;;;;;;5.80;2.22;;;23.00;40.70;;;;;;5000192;28;44487;-69
2022/01/28 13:25:37;;;;;;;5.03;2.10;;;23.00;40.30;;;;;;5008941;28;43466;-68
2022/01/28 13:28:15;;;;;;;4.28;2.30;;;23.10;40.30;;;;;;5007501;28;43621;-69
2022/01/28 13:30:56;;;;;;;5.28;2.03;;;23.00;40.40;;;;;;5005128;28;45400;-69
2022/01/28 13:33:29;;;;;;;4.35;2.08;;;23.00;40.50;;;;;;5017354;28;43433;-70
2022/01/28 13:36:01;;;;;;;3.53;2.00;;;23.00;40.50;;;;;;5005520;28;43505;-71
2022/01/28 13:38:38;;;;;;;4.43;2.08;;;23.10;40.60;;;;;;5004185;28;43557;-68
2022/01/28 13:41:21;;;;;;;5.65;2.08;;;23.00;40.60;;;;;;5002830;28;43942;-68
2022/01/28 13:43:48;;;;;;;4.85;2.20;;;23.10;40.40;;;;;;5005247;28;44656;-69
2022/01/28 13:46:16;;;;;;;5.40;2.13;;;23.10;40.50;;;;;;5006890;28;43833;-68
2022/01/28 13:48:47;;;;;;;4.82;1.83;;;23.10;40.40;;;;;;5007479;28;43556;-69
2022/01/28 13:51:21;;;;;;;4.95;2.28;;;23.10;40.40;;;;;;5006769;28;45488;-67
2022/01/28 13:56:32;;;;;;;4.78;2.22;;;23.10;40.50;;;;;;5010158;28;43435;-69
2022/01/28 13:59:00;;;;;;;4.47;2.25;;;23.10;40.50;;;;;;5004582;28;44160;-73
2022/01/28 14:01:28;;;;;;;5.00;2.10;;;23.10;40.40;;;;;;5025231;28;45391;-72
2022/01/28 14:04:02;;;;;;;7.10;2.97;;;23.10;40.50;;;;;;5022141;28;44470;-72
2022/01/28 14:06:32;;;;;;;4.45;2.00;;;23.10;40.40;;;;;;5006543;28;43607;-71
2022/01/28 14:09:05;;;;;;;3.58;1.80;;;23.10;40.40;;;;;;5004829;28;43538;-70
2022/01/28 14:11:39;;;;;;;5.03;2.30;;;23.10;40.40;;;;;;5004164;28;46098;-73
2022/01/28 14:14:43;;;;;;;5.05;1.90;;;23.10;40.40;;;;;;5001607;28;43980;-71
2022/01/28 14:17:11;;;;;;;5.53;2.17;;;23.10;40.30;;;;;;5010050;28;43520;-69
2022/01/28 14:19:40;;;;;;;5.10;2.38;;;23.10;40.30;;;;;;4985254;28;43516;-69
2022/01/28 14:22:12;;;;;;;3.83;2.13;;;23.10;40.40;;;;;;4996660;28;45317;-68
2022/01/28 14:24:57;;;;;;;3.78;2.30;;;23.10;40.30;;;;;;5005636;28;44944;-70
2022/01/28 14:30:22;;;;;;;4.35;2.00;;;23.10;40.30;;;;;;5005075;28;43570;-73
2022/01/28 14:32:47;;;;;;;3.10;2.00;;;23.10;40.40;;;;;;5003286;28;45751;-69
2022/01/28 14:35:17;;;;;;;5.35;2.38;;;23.10;40.30;;;;;;5007005;28;43468;-73
2022/01/28 14:37:45;;;;;;;2.50;1.92;;;23.10;40.30;;;;;;5003305;28;43541;-70
2022/01/28 14:40:14;;;;;;;5.57;1.92;;;23.10;40.40;;;;;;5003882;28;43555;-67
2022/01/28 14:42:42;;;;;;;3.90;1.88;;;23.10;40.40;;;;;;5007945;28;45442;-72
2022/01/28 14:45:09;;;;;;;4.78;2.05;;;23.10;40.40;;;;;;5000960;28;44376;-70
2022/01/28 14:47:38;;;;;;;4.85;2.05;;;23.10;40.30;;;;;;4986934;28;43496;-69
2022/01/28 14:50:07;;;;;;;3.22;2.05;;;23.10;40.20;;;;;;5005002;28;44236;-70
2022/01/28 14:52:34;;;;;;;3.45;1.95;;;23.10;40.30;;;;;;5004896;28;44671;-71